Aérodrome :
LOGIN :

S'inscrire | Disclaimer

   EN    FR    IT 

 










Légende :    VFR   VFR Marginal   IFR   IFR Intensif   IFR Très Intensif
Visi : 
Plafond : 
>= 8 km
>= 3000ft
5 à 8 km
1000 à 3000 ft
1500m à 5 km
500 à 1000 ft
800 à 1500m
200 à 500 ft
< 800m
< 200 ft
Symboles :   Orages  Brouillard  Fortes neiges  Fortes précipitations  Vent > 20 kt
SIGMETs :   Divers  Orages  Givrage  Turbulence  Onde Orograph.  Cendres Volcan.






- Altitude de l'aérodrome : 256 ft
- Code IATA : KUN


EYKA - Kaunas

DERNIER METAR :
  • 251220Z 14009KT 120V180 4600 -RASN OVC006 02/M00 Q0994 R08/190095

METARs EXPIRÉS :
  • 251150Z 15008KT 120V180 9000 -RASN OVC007 02/M00 Q0995 R08/190095
  • 251120Z 14008KT 110V170 5000 -RASN BR OVC007 01/M00 Q0996 R08/190095
  • 251050Z 14009KT 9999 -RASN OVC008 02/M00 Q0996 R08/190095
  • 251020Z 14010KT 9999 -RASN OVC009 02/M01 Q0997 R08/190095
  • 250950Z 13009KT 9000 -RASN OVC009 02/M01 Q0997 R08/190095

TAF TAF EYKA
Valide du 25 à 12h jusqu'au 26 à 12h UTC


251103Z 2512/2612 20010KT 6000 OVC010
TEMPO 2512/2516 14010KT 1500 RASN BR OVC005
TEMPO 2516/2519 3000 BR OVC005
TEMPO 2519/2524 14010KT 1500 SHRASN BKN005 BKN012CB
BECMG 2604/2605 BKN015



MET'MAP, la Météo Aéronautique d'un coup d'oeil ! - Copyright ORBIFLY Décembre 2007 - Disclaimer

ORBIFLY MET'MAP TEAM :

Programmation & Développement : Alexandra Zaïnal
Sur une idée originale de : Baudouin d'Aumeries
Assistance à la programmation : Marc-Olivier Méhu
Soutien technique & logistique : Manuel Goepfert

Contact : metmap@orbifly.com




SOURCES & CREDITS :

   NOAA